createdAt,value
2024-05-09T00:01:59.292Z,4.17
2024-05-09T00:04:33.744Z,4.20
2024-05-09T00:07:13.409Z,3.80
2024-05-09T00:09:48.109Z,3.80
2024-05-09T00:12:22.680Z,4.10
2024-05-09T00:14:57.188Z,4.47
2024-05-09T00:17:31.859Z,4.13
2024-05-09T00:20:17.461Z,4.10
2024-05-09T00:22:57.681Z,4.37
2024-05-09T00:25:32.112Z,4.00
2024-05-09T00:28:06.827Z,4.10
2024-05-09T00:30:41.583Z,4.50
2024-05-09T00:33:16.231Z,4.00
2024-05-09T00:35:50.880Z,4.40
2024-05-09T00:38:28.261Z,4.83
2024-05-09T00:41:02.810Z,4.33
2024-05-09T00:43:37.188Z,4.50
2024-05-09T00:46:12.496Z,5.00
2024-05-09T00:48:52.216Z,4.30
2024-05-09T00:51:26.848Z,4.67
2024-05-09T00:54:05.509Z,4.50
2024-05-09T00:56:40.122Z,4.50
2024-05-09T00:59:15.017Z,4.87
2024-05-09T01:01:50.044Z,4.57
2024-05-09T01:04:24.414Z,5.17
2024-05-09T01:06:58.904Z,4.87
2024-05-09T01:09:41.217Z,4.80
2024-05-09T01:12:16.291Z,4.30
2024-05-09T01:14:53.499Z,4.17
2024-05-09T01:17:28.327Z,4.57
2024-05-09T01:20:04.233Z,4.53
2024-05-09T01:22:41.899Z,4.60
2024-05-09T01:25:19.042Z,4.80
2024-05-09T01:27:53.607Z,4.23
2024-05-09T01:30:34.315Z,4.40
2024-05-09T01:33:12.466Z,4.97
2024-05-09T01:35:47.608Z,4.63
2024-05-09T01:38:22.221Z,4.23
2024-05-09T01:40:59.424Z,4.93
2024-05-09T01:43:34.001Z,4.77
2024-05-09T01:46:08.559Z,4.77
2024-05-09T01:48:46.029Z,4.77
2024-05-09T01:51:20.733Z,4.93
2024-05-09T01:53:56.973Z,4.50
2024-05-09T01:56:34.153Z,4.70
2024-05-09T01:59:10.566Z,4.50
2024-05-09T02:01:56.440Z,5.20
2024-05-09T02:04:32.374Z,5.00
2024-05-09T02:07:08.508Z,4.87
2024-05-09T02:09:43.314Z,5.33
2024-05-09T02:12:20.551Z,5.33
2024-05-09T02:14:55.169Z,5.10
2024-05-09T02:17:29.803Z,4.50
2024-05-09T02:20:10.761Z,5.40
2024-05-09T02:22:47.782Z,5.23
2024-05-09T02:25:23.001Z,5.17
2024-05-09T02:28:00.148Z,4.57
2024-05-09T02:30:40.892Z,5.10
2024-05-09T02:33:16.993Z,4.83
2024-05-09T02:35:51.759Z,4.90
2024-05-09T02:38:24.119Z,4.70
2024-05-09T02:41:00.032Z,5.17
2024-05-09T02:43:34.504Z,4.83
2024-05-09T02:46:12.241Z,5.10
2024-05-09T02:48:44.099Z,4.83
2024-05-09T02:51:18.644Z,5.80
2024-05-09T02:53:50.455Z,5.50
2024-05-09T02:56:25.086Z,4.80
2024-05-09T02:59:02.617Z,5.33
2024-05-09T03:01:37.291Z,5.37
2024-05-09T03:04:09.360Z,5.43
2024-05-09T03:06:44.107Z,5.20
2024-05-09T03:09:15.942Z,5.80
2024-05-09T03:11:50.685Z,5.27
2024-05-09T03:14:25.421Z,5.07
2024-05-09T03:17:00.066Z,5.33
2024-05-09T03:19:34.960Z,5.40
2024-05-09T03:22:09.506Z,4.90
2024-05-09T03:24:41.454Z,4.80
2024-05-09T03:27:16.028Z,4.90
2024-05-09T03:29:50.631Z,5.30
2024-05-09T03:32:25.195Z,5.17
2024-05-09T03:34:57.084Z,5.07
2024-05-09T03:37:31.652Z,5.30
2024-05-09T03:40:11.807Z,5.57
2024-05-09T03:42:49.180Z,5.33
2024-05-09T03:45:26.560Z,5.70
2024-05-09T03:48:01.132Z,5.47
2024-05-09T03:50:36.875Z,5.37
2024-05-09T03:53:10.381Z,5.70
2024-05-09T03:55:45.196Z,5.47
2024-05-09T03:58:17.174Z,5.87
2024-05-09T04:00:54.314Z,5.57
2024-05-09T04:03:26.517Z,5.80
2024-05-09T04:06:01.278Z,5.93
2024-05-09T04:08:33.259Z,5.57
2024-05-09T04:11:07.865Z,5.67
2024-05-09T04:13:39.765Z,6.10
2024-05-09T04:16:16.944Z,5.90
2024-05-09T04:18:51.936Z,5.50
2024-05-09T04:21:26.572Z,5.47
2024-05-09T04:23:58.498Z,5.47
2024-05-09T04:26:33.105Z,5.40
2024-05-09T04:29:05.079Z,6.10
2024-05-09T04:31:51.191Z,5.50
2024-05-09T04:34:23.242Z,5.00
2024-05-09T04:36:57.833Z,5.30
2024-05-09T04:39:29.894Z,5.77
2024-05-09T04:42:04.284Z,5.53
2024-05-09T04:44:36.330Z,5.70
2024-05-09T04:47:13.523Z,6.13
2024-05-09T04:49:49.069Z,6.03
2024-05-09T04:52:23.574Z,5.60
2024-05-09T04:54:58.427Z,5.53
2024-05-09T04:57:33.395Z,5.90
2024-05-09T05:00:09.447Z,5.73
2024-05-09T05:02:51.641Z,6.23
2024-05-09T05:05:23.626Z,6.20
2024-05-09T05:07:58.171Z,5.97
2024-05-09T05:10:35.726Z,5.10
2024-05-09T05:13:23.947Z,5.40
2024-05-09T05:15:59.013Z,5.93
2024-05-09T05:18:33.685Z,6.37
2024-05-09T05:21:10.148Z,5.87
2024-05-09T05:23:42.011Z,6.03
2024-05-09T05:26:20.428Z,6.50
2024-05-09T05:28:55.162Z,6.03
2024-05-09T05:31:29.741Z,5.57
2024-05-09T05:34:09.585Z,5.87
2024-05-09T05:36:47.125Z,5.90
2024-05-09T05:39:20.359Z,5.47
2024-05-09T05:41:56.446Z,6.23
2024-05-09T05:44:28.458Z,5.20
2024-05-09T05:47:03.065Z,5.50
2024-05-09T05:49:38.020Z,5.77
2024-05-09T05:52:13.249Z,5.27
2024-05-09T05:54:45.151Z,5.90
2024-05-09T05:57:19.524Z,6.23
2024-05-09T05:59:51.352Z,5.57
2024-05-09T06:02:26.018Z,5.37
2024-05-09T06:05:00.717Z,5.37
2024-05-09T06:07:37.659Z,5.10
2024-05-09T06:10:17.264Z,5.43
2024-05-09T06:12:56.165Z,5.67
2024-05-09T06:15:27.970Z,5.33
2024-05-09T06:18:02.736Z,5.50
2024-05-09T06:20:39.484Z,5.20
2024-05-09T06:23:17.207Z,5.57
2024-05-09T06:25:49.056Z,5.17
2024-05-09T06:28:23.572Z,5.60
2024-05-09T06:30:55.364Z,5.10
2024-05-09T06:33:30.122Z,5.73
2024-05-09T06:36:12.359Z,5.03
2024-05-09T06:38:46.917Z,5.20
2024-05-09T06:41:19.006Z,5.27
2024-05-09T06:43:53.657Z,5.00
2024-05-09T06:46:26.893Z,4.93
2024-05-09T06:49:04.756Z,4.97
2024-05-09T06:51:41.921Z,5.50
2024-05-09T06:54:21.424Z,4.60
2024-05-09T06:56:53.247Z,5.40
2024-05-09T06:59:27.824Z,5.33
2024-05-09T07:01:59.797Z,5.00
2024-05-09T07:04:37.471Z,4.90
2024-05-09T07:07:12.293Z,4.40
2024-05-09T07:09:46.793Z,4.23
2024-05-09T07:12:18.790Z,4.00
2024-05-09T07:14:53.571Z,4.73
2024-05-09T07:17:25.541Z,4.23
2024-05-09T07:20:00.154Z,4.13
2024-05-09T07:22:34.925Z,4.50
2024-05-09T07:25:09.625Z,4.20
2024-05-09T07:27:43.451Z,4.40
2024-05-09T07:30:27.414Z,4.40
2024-05-09T07:33:05.282Z,4.43
2024-05-09T07:35:40.040Z,3.80
2024-05-09T07:38:14.720Z,4.30
2024-05-09T07:40:51.842Z,4.30
2024-05-09T07:43:28.024Z,3.80
2024-05-09T07:47:04.572Z,4.27
2024-05-09T07:50:35.960Z,3.73
2024-05-09T07:53:21.145Z,3.73
2024-05-09T07:54:50.517Z,3.87
2024-05-09T07:57:22.444Z,4.10
2024-05-09T07:59:56.952Z,3.60
2024-05-09T08:02:29.018Z,4.07
2024-05-09T08:05:03.972Z,3.80
2024-05-09T08:07:37.588Z,5.30
2024-05-09T08:10:18.797Z,4.10
2024-05-09T08:12:54.237Z,3.50
2024-05-09T08:15:29.111Z,3.90
2024-05-09T08:18:01.393Z,3.60
2024-05-09T08:20:36.062Z,4.43
2024-05-09T08:23:07.891Z,3.63
2024-05-09T08:25:48.041Z,3.30
2024-05-09T08:28:22.810Z,3.60
2024-05-09T08:30:54.663Z,3.60
2024-05-09T08:33:29.299Z,3.70
2024-05-09T08:36:01.341Z,3.47
2024-05-09T08:38:38.848Z,3.23
2024-05-09T08:41:13.640Z,3.13
2024-05-09T08:43:48.791Z,3.43
2024-05-09T08:46:20.908Z,3.50
2024-05-09T08:48:58.153Z,3.40
2024-05-09T08:51:30.120Z,3.20
2024-05-09T08:54:04.864Z,3.00
2024-05-09T08:56:39.731Z,3.10
2024-05-09T08:59:18.792Z,3.20
2024-05-09T09:01:51.801Z,3.00
2024-05-09T09:04:26.550Z,3.13
2024-05-09T09:07:00.303Z,3.00
2024-05-09T09:09:43.618Z,3.23
2024-05-09T09:12:18.124Z,3.40
2024-05-09T09:14:52.704Z,3.50
2024-05-09T09:17:24.553Z,3.40
2024-05-09T09:19:59.269Z,3.17
2024-05-09T09:22:36.491Z,2.77
2024-05-09T09:25:11.110Z,3.00
2024-05-09T09:27:45.835Z,2.80
2024-05-09T09:30:31.781Z,2.73
2024-05-09T09:33:09.784Z,2.73
2024-05-09T09:35:44.604Z,2.60
2024-05-09T09:38:20.731Z,3.10
2024-05-09T09:40:55.338Z,3.20
2024-05-09T09:43:30.338Z,2.83
2024-05-09T09:46:06.302Z,3.50
2024-05-09T09:48:40.163Z,3.10
2024-05-09T09:51:16.268Z,2.90
2024-05-09T09:53:49.198Z,2.77
2024-05-09T09:56:24.071Z,2.73
2024-05-09T09:58:58.965Z,2.90
2024-05-09T10:01:34.635Z,2.50
2024-05-09T10:04:09.668Z,2.90
2024-05-09T10:06:45.519Z,2.80
2024-05-09T10:09:20.629Z,2.60
2024-05-09T10:11:59.706Z,3.37
2024-05-09T10:14:47.687Z,2.87
2024-05-09T10:17:20.109Z,2.90
2024-05-09T10:20:14.654Z,3.30
2024-05-09T10:22:53.485Z,3.07
2024-05-09T10:25:27.961Z,3.17
2024-05-09T10:27:59.847Z,3.23
2024-05-09T10:30:37.443Z,3.17
2024-05-09T10:33:11.292Z,3.10
2024-05-09T10:35:54.028Z,3.17
2024-05-09T10:38:26.453Z,2.80
2024-05-09T10:41:02.685Z,2.63
2024-05-09T10:43:35.511Z,2.73
2024-05-09T10:46:13.587Z,2.30
2024-05-09T10:48:45.675Z,2.53
2024-05-09T10:51:23.515Z,4.00
2024-05-09T10:53:57.034Z,3.20
2024-05-09T10:56:31.518Z,3.23
2024-05-09T10:59:03.750Z,2.83
2024-05-09T11:01:41.235Z,2.57
2024-05-09T11:04:16.843Z,2.50
2024-05-09T11:06:51.910Z,2.90
2024-05-09T11:09:23.971Z,2.40
2024-05-09T11:11:58.671Z,2.40
2024-05-09T11:14:30.736Z,2.67
2024-05-09T11:17:08.936Z,2.43
2024-05-09T11:19:42.055Z,2.93
2024-05-09T11:22:16.891Z,6.70
2024-05-09T11:24:48.926Z,2.90
2024-05-09T11:27:23.611Z,2.70
2024-05-09T11:29:55.491Z,2.67
2024-05-09T11:32:33.517Z,3.30
2024-05-09T11:35:08.660Z,2.87
2024-05-09T11:37:43.179Z,2.80
2024-05-09T11:40:21.408Z,2.80
2024-05-09T11:43:02.459Z,2.63
2024-05-09T11:45:34.630Z,2.77
2024-05-09T11:48:12.211Z,2.80
2024-05-09T11:50:44.243Z,3.47
2024-05-09T11:53:18.893Z,3.27
2024-05-09T11:55:50.810Z,6.40
2024-05-09T11:58:36.977Z,3.17
2024-05-09T12:01:08.900Z,2.67
2024-05-09T12:03:46.312Z,2.73
2024-05-09T12:06:18.434Z,3.10
2024-05-09T12:08:52.910Z,2.53
2024-05-09T12:11:24.822Z,2.77
2024-05-09T12:13:59.565Z,2.60
2024-05-09T12:16:31.919Z,2.83
2024-05-09T12:19:09.386Z,2.70
2024-05-09T12:21:43.751Z,2.50
2024-05-09T12:24:18.657Z,2.70
2024-05-09T12:26:50.992Z,2.87
2024-05-09T12:29:26.350Z,2.83
2024-05-09T12:31:58.190Z,2.80
2024-05-09T12:34:35.506Z,2.67
2024-05-09T12:37:07.525Z,2.83
2024-05-09T12:39:42.064Z,3.13
2024-05-09T12:42:25.890Z,2.90
2024-05-09T12:45:04.592Z,2.93
2024-05-09T12:47:37.031Z,2.80
2024-05-09T12:50:22.306Z,3.23
2024-05-09T12:53:02.054Z,2.73
2024-05-09T12:55:44.872Z,2.70
2024-05-09T12:58:25.105Z,2.60
2024-05-09T13:00:59.812Z,2.50
2024-05-09T13:03:31.895Z,2.83
2024-05-09T13:06:09.369Z,2.60
2024-05-09T13:08:41.328Z,2.90
2024-05-09T13:11:15.910Z,2.40
2024-05-09T13:13:47.910Z,2.90
2024-05-09T13:19:08.536Z,2.40
2024-05-09T13:21:45.855Z,3.10
2024-05-09T13:24:20.145Z,2.83
2024-05-09T13:26:54.671Z,2.80
2024-05-09T13:29:26.628Z,3.13
2024-05-09T13:32:01.398Z,3.40
2024-05-09T13:34:33.402Z,3.00
2024-05-09T13:37:10.920Z,2.50
2024-05-09T13:39:43.028Z,2.90
2024-05-09T13:42:17.498Z,3.27
2024-05-09T13:44:49.336Z,2.87
2024-05-09T13:47:29.465Z,3.07
2024-05-09T13:50:01.984Z,3.13
2024-05-09T13:52:40.230Z,3.10
2024-05-09T13:55:13.058Z,3.20
2024-05-09T13:57:47.847Z,2.90
2024-05-09T14:00:31.949Z,2.90
2024-05-09T14:03:17.640Z,2.67
2024-05-09T14:05:52.119Z,2.73
2024-05-09T14:08:32.867Z,2.93
2024-05-09T14:11:06.090Z,2.80
2024-05-09T14:13:43.027Z,3.00
2024-05-09T14:16:15.214Z,2.97
2024-05-09T14:18:50.313Z,2.73
2024-05-09T14:21:22.193Z,2.70
2024-05-09T14:24:01.158Z,2.90
2024-05-09T14:26:33.348Z,2.67
2024-05-09T14:29:07.908Z,2.63
2024-05-09T14:31:40.067Z,2.90
2024-05-09T14:34:15.221Z,2.90
2024-05-09T14:36:47.415Z,2.90
2024-05-09T14:39:24.571Z,2.77
2024-05-09T14:41:59.679Z,2.70
2024-05-09T14:44:34.223Z,2.47
2024-05-09T14:47:08.822Z,2.87
2024-05-09T14:49:40.791Z,3.23
2024-05-09T14:52:15.772Z,2.87
2024-05-09T14:54:59.847Z,3.07
2024-05-09T14:57:35.297Z,3.13
2024-05-09T15:00:14.112Z,3.10
2024-05-09T15:02:52.181Z,3.10
2024-05-09T15:05:25.004Z,3.10
2024-05-09T15:08:03.705Z,3.20
2024-05-09T15:10:39.040Z,2.53
2024-05-09T15:13:16.414Z,2.57
2024-05-09T15:15:50.005Z,2.73
2024-05-09T15:18:24.672Z,2.93
2024-05-09T15:20:56.746Z,5.87
2024-05-09T15:23:31.397Z,2.67
2024-05-09T15:26:06.021Z,3.40
2024-05-09T15:28:40.529Z,2.70
2024-05-09T15:31:12.633Z,2.43
2024-05-09T15:33:47.402Z,2.80
2024-05-09T15:36:20.212Z,2.60
2024-05-09T15:38:55.487Z,2.70
2024-05-09T15:41:32.816Z,2.60
2024-05-09T15:44:07.659Z,2.53
2024-05-09T15:46:39.689Z,2.40
2024-05-09T15:49:14.418Z,3.03
2024-05-09T15:51:46.589Z,2.47
2024-05-09T15:54:25.042Z,2.93
2024-05-09T15:56:59.955Z,2.70
2024-05-09T15:59:34.635Z,2.80
2024-05-09T16:02:07.698Z,2.50
2024-05-09T16:04:45.667Z,2.60
2024-05-09T16:07:17.746Z,2.73
2024-05-09T16:09:55.458Z,2.70
2024-05-09T16:12:32.390Z,2.60
2024-05-09T16:15:07.173Z,2.87
2024-05-09T16:17:39.527Z,2.47
2024-05-09T16:20:18.326Z,2.80
2024-05-09T16:22:58.059Z,2.83
2024-05-09T16:25:32.674Z,2.83
2024-05-09T16:28:10.266Z,2.73
2024-05-09T16:30:45.632Z,2.50
2024-05-09T16:33:20.914Z,3.00
2024-05-09T16:35:55.682Z,2.67
2024-05-09T16:38:27.594Z,2.77
2024-05-09T16:41:02.299Z,2.67
2024-05-09T16:43:37.271Z,2.80
2024-05-09T16:46:12.633Z,2.60
2024-05-09T16:48:46.467Z,2.63
2024-05-09T16:51:21.256Z,2.83
2024-05-09T16:53:53.201Z,2.60
2024-05-09T16:56:27.856Z,2.50
2024-05-09T16:59:02.462Z,2.80
2024-05-09T17:01:37.131Z,2.70
2024-05-09T17:04:09.425Z,2.67
2024-05-09T17:06:50.030Z,3.30
2024-05-09T17:09:24.016Z,2.93
2024-05-09T17:11:58.474Z,2.80
2024-05-09T17:14:35.641Z,2.73
2024-05-09T17:17:09.087Z,2.00
2024-05-09T17:19:46.634Z,2.50
2024-05-09T17:22:20.334Z,2.73
2024-05-09T17:24:56.835Z,2.70
2024-05-09T17:27:28.726Z,2.60
2024-05-09T17:30:08.072Z,2.70
2024-05-09T17:32:42.453Z,2.30
2024-05-09T17:35:17.175Z,2.80
2024-05-09T17:37:52.218Z,2.53
2024-05-09T17:40:33.204Z,2.70
2024-05-09T17:43:09.714Z,2.83
2024-05-09T17:45:48.080Z,2.77
2024-05-09T17:48:20.276Z,2.73
2024-05-09T17:50:54.941Z,2.83
2024-05-09T17:53:26.869Z,2.77
2024-05-09T17:56:02.310Z,2.90
2024-05-09T17:58:34.313Z,3.30
2024-05-09T18:01:12.608Z,2.73
2024-05-09T18:03:44.764Z,3.13
2024-05-09T18:06:19.472Z,2.97
2024-05-09T18:08:51.490Z,4.77
2024-05-09T18:11:27.277Z,4.53
2024-05-09T18:13:59.404Z,4.00
2024-05-09T18:16:36.644Z,3.70
2024-05-09T18:19:08.881Z,3.90
2024-05-09T18:21:48.917Z,4.03
2024-05-09T18:24:22.234Z,5.70
2024-05-09T18:26:56.796Z,6.17
2024-05-09T18:29:37.518Z,4.73
2024-05-09T18:32:14.630Z,4.10
2024-05-09T18:34:46.592Z,4.83
2024-05-09T18:37:21.252Z,4.13
2024-05-09T18:39:53.523Z,3.50
2024-05-09T18:42:30.561Z,3.30
2024-05-09T18:45:05.430Z,3.50
2024-05-09T18:47:42.612Z,3.30
2024-05-09T18:50:20.937Z,3.10
2024-05-09T18:53:03.556Z,3.30
2024-05-09T18:55:35.539Z,2.90
2024-05-09T18:58:12.660Z,3.47
2024-05-09T19:00:47.199Z,3.37
2024-05-09T19:03:27.254Z,3.40
2024-05-09T19:05:59.414Z,5.77
2024-05-09T19:08:33.937Z,3.67
2024-05-09T19:11:05.954Z,3.27
2024-05-09T19:13:41.345Z,3.70
2024-05-09T19:16:16.018Z,3.60
2024-05-09T19:18:54.059Z,3.70
2024-05-09T19:21:28.870Z,4.37
2024-05-09T19:24:03.755Z,4.10
2024-05-09T19:26:38.342Z,4.43
2024-05-09T19:29:10.229Z,4.50
2024-05-09T19:31:45.048Z,4.70
2024-05-09T19:34:19.615Z,7.10
2024-05-09T19:36:54.197Z,6.47
2024-05-09T19:39:26.123Z,6.73
2024-05-09T19:42:00.681Z,5.60
2024-05-09T19:44:32.524Z,5.80
2024-05-09T19:47:07.163Z,4.93
2024-05-09T19:49:41.714Z,4.80
2024-05-09T19:52:18.210Z,5.53
2024-05-09T19:54:50.383Z,5.20
2024-05-09T19:57:27.605Z,4.77
2024-05-09T19:59:59.602Z,4.10
2024-05-09T20:02:34.484Z,4.73
2024-05-09T20:05:11.665Z,4.00
2024-05-09T20:07:48.656Z,4.30
2024-05-09T20:10:24.064Z,4.93
2024-05-09T20:13:07.178Z,4.50
2024-05-09T20:15:40.045Z,4.37
2024-05-09T20:18:14.854Z,4.07
2024-05-09T20:20:53.412Z,4.90
2024-05-09T20:23:29.242Z,4.40
2024-05-09T20:26:03.182Z,4.20
2024-05-09T20:28:37.727Z,4.90
2024-05-09T20:31:09.871Z,4.60
2024-05-09T20:33:44.869Z,4.47
2024-05-09T20:36:19.456Z,3.90
2024-05-09T20:38:54.103Z,5.03
2024-05-09T20:41:25.976Z,4.30
2024-05-09T20:44:02.154Z,4.57
2024-05-09T20:46:34.058Z,5.00
2024-05-09T20:49:08.740Z,5.23
2024-05-09T20:51:45.108Z,5.33
2024-05-09T20:54:19.695Z,5.10
2024-05-09T20:56:51.496Z,5.23
2024-05-09T20:59:26.303Z,6.10
2024-05-09T21:01:58.300Z,4.93
2024-05-09T21:04:35.763Z,6.17
2024-05-09T21:07:10.396Z,6.20
2024-05-09T21:09:44.939Z,6.37
2024-05-09T21:12:18.147Z,6.50
2024-05-09T21:14:55.432Z,7.10
2024-05-09T21:17:27.284Z,6.57
2024-05-09T21:20:02.005Z,7.00
2024-05-09T21:22:36.863Z,6.83
2024-05-09T21:25:12.309Z,6.70
2024-05-09T21:27:44.391Z,7.20
2024-05-09T21:30:28.207Z,6.70
2024-05-09T21:33:11.680Z,6.73
2024-05-09T21:35:47.765Z,7.03
2024-05-09T21:38:25.132Z,7.10
2024-05-09T21:40:59.607Z,6.77
2024-05-09T21:43:37.138Z,6.70
2024-05-09T21:46:11.910Z,6.50
2024-05-09T21:48:43.821Z,6.80
2024-05-09T21:51:18.578Z,6.70
2024-05-09T21:53:53.017Z,7.67
2024-05-09T21:56:30.350Z,7.80
2024-05-09T21:59:02.199Z,7.67
2024-05-09T22:01:36.974Z,7.13
2024-05-09T22:04:08.896Z,7.10
2024-05-09T22:06:46.479Z,7.23
2024-05-09T22:09:20.980Z,7.00
2024-05-09T22:11:57.563Z,6.53
2024-05-09T22:14:29.826Z,8.13
2024-05-09T22:17:04.388Z,7.10
2024-05-09T22:19:36.330Z,7.40
2024-05-09T22:22:13.312Z,7.63
2024-05-09T22:24:47.927Z,7.70
2024-05-09T22:27:22.378Z,7.60
2024-05-09T22:29:54.555Z,7.47
2024-05-09T22:32:29.071Z,7.17
2024-05-09T22:35:01.160Z,7.53
2024-05-09T22:37:35.936Z,7.70
2024-05-09T22:40:14.972Z,8.20
2024-05-09T22:42:54.694Z,7.97
2024-05-09T22:45:27.653Z,7.13
2024-05-09T22:48:02.396Z,6.70
2024-05-09T22:50:34.354Z,7.33
2024-05-09T22:53:08.896Z,7.47
2024-05-09T22:55:46.080Z,7.77
2024-05-09T22:58:18.387Z,7.13
2024-05-09T23:00:53.265Z,7.97
2024-05-09T23:03:25.677Z,7.13
2024-05-09T23:06:00.433Z,7.30
2024-05-09T23:08:32.863Z,7.73
2024-05-09T23:11:21.794Z,7.37
2024-05-09T23:13:53.806Z,7.57
2024-05-09T23:16:32.056Z,7.67
2024-05-09T23:19:07.235Z,7.33
2024-05-09T23:21:42.592Z,7.43
2024-05-09T23:24:14.485Z,7.50
2024-05-09T23:26:51.649Z,7.80
2024-05-09T23:29:23.635Z,7.87
2024-05-09T23:31:58.030Z,8.67
2024-05-09T23:34:30.143Z,8.07
2024-05-09T23:37:04.796Z,8.17
2024-05-09T23:39:36.909Z,8.67
2024-05-09T23:42:14.125Z,8.20
2024-05-09T23:44:46.010Z,9.23
2024-05-09T23:47:21.816Z,8.83
2024-05-09T23:49:56.571Z,9.17
2024-05-09T23:52:31.194Z,8.90
2024-05-09T23:55:03.122Z,9.43
2024-05-09T23:57:40.250Z,8.40
